»·PEaware :: N73MC KLGB-KSNA

N73MC :: KLGB-KSNA

FLIGHT INFORMATION

Flight Status: Arrived
Operator: Privately registered:
United States
More flights under this callsign
Pilot: Mark R. (11809)
Aircraft: BEECH AIRCRAFT TURBO BARON
(BE56)
More flights by this aircraft type
Origin: KLGB Long Beach
United States
Destination: KSNA John Wayne-Orange Co
United States
More flights between these airports :: More routes between these airports
Route: +SLI
File this flight plan on PilotEdge
Remarks: LDA 20R APPROACH
Altitude:
(Current/Filed)
5,000ft
Speed:
(Current/Filed)
200kts
Departed: 29-Jul-20 12:27 PM
Arrived: 29-Jul-20 12:50 PM
Distance/Time
Traveled:
16nm/0:23
Distance/Time
To Go:
Arrived

Flight Plot

Page will automatically refresh every two minutes.


Map Options




Map Legend


Flown Route
Filed Route
Departure Airport
Arrival Airport
Navaid (VOR, NDB)
Fix

Horizontal Profiles

Position Reports

Time Latitude Longitude Heading Altitude Ground
Speed
29-Jul-20 11:47 33.812454 -118.151108 269 48ft 0kts
29-Jul-20 11:48 33.812454 -118.151108 269 48ft 0kts
29-Jul-20 11:49 33.812454 -118.151108 269 48ft 0kts
29-Jul-20 11:50 33.812454 -118.151108 269 48ft 0kts
29-Jul-20 11:51 33.812454 -118.151108 269 48ft 0kts
29-Jul-20 11:52 33.812454 -118.151108 269 48ft 0kts
29-Jul-20 11:53 33.812454 -118.151108 269 48ft 0kts
29-Jul-20 11:54 33.812454 -118.151108 269 48ft 0kts
29-Jul-20 11:55 33.812454 -118.151108 269 48ft 0kts
29-Jul-20 11:56 33.812454 -118.151108 269 48ft 0kts
29-Jul-20 11:57 33.812454 -118.151108 269 48ft 0kts
29-Jul-20 11:58 33.812454 -118.151108 269 48ft 0kts
29-Jul-20 11:59 33.812454 -118.151108 269 48ft 0kts
29-Jul-20 12:00 33.812454 -118.151108 269 48ft 0kts
29-Jul-20 12:01 33.812454 -118.151108 269 48ft 0kts
29-Jul-20 12:02 33.812454 -118.151108 269 48ft 0kts
29-Jul-20 12:03 33.812454 -118.151108 269 48ft 0kts
29-Jul-20 12:04 33.812454 -118.151108 269 48ft 0kts
29-Jul-20 12:05 33.812454 -118.151108 269 48ft 0kts
29-Jul-20 12:06 33.812454 -118.151108 269 48ft 0kts
29-Jul-20 12:07 33.812454 -118.151108 269 48ft 0kts
29-Jul-20 12:09 33.812454 -118.151108 269 48ft 0kts
29-Jul-20 12:10 33.812454 -118.151108 269 48ft 0kts
29-Jul-20 12:11 33.812531 -118.151428 267 48ft 0kts
29-Jul-20 12:12 33.812531 -118.151428 267 48ft 0kts
29-Jul-20 12:13 33.812531 -118.151428 267 48ft 0kts
29-Jul-20 12:14 33.812531 -118.151428 267 48ft 0kts
29-Jul-20 12:15 33.812531 -118.151428 267 48ft 0kts
29-Jul-20 12:16 33.812531 -118.151428 267 48ft 0kts
29-Jul-20 12:17 33.813087 -118.150535 98 48ft 6kts
29-Jul-20 12:18 33.813041 -118.147489 119 47ft 12kts
29-Jul-20 12:19 33.811316 -118.144827 97 46ft 0kts
29-Jul-20 12:20 33.811316 -118.144827 97 46ft 0kts
29-Jul-20 12:21 33.811316 -118.144827 97 46ft 0kts
29-Jul-20 12:22 33.811316 -118.144827 97 46ft 0kts
29-Jul-20 12:23 33.811316 -118.144827 97 46ft 0kts
29-Jul-20 12:23 33.811316 -118.144827 97 46ft 0kts
29-Jul-20 12:25 33.811316 -118.144827 97 46ft 0kts
29-Jul-20 12:26 33.811591 -118.144096 31 46ft 8kts
29-Jul-20 12:26 33.821243 -118.155480 314 217ft 125kts
29-Jul-20 12:28 33.830698 -118.199135 215 1632ft 152kts
29-Jul-20 12:29 33.794847 -118.228061 213 2837ft 157kts
29-Jul-20 12:29 33.762672 -118.253885 213 2991ft 174kts
29-Jul-20 12:30 33.719859 -118.268299 143 3008ft 176kts
29-Jul-20 12:32 33.673786 -118.226285 142 3010ft 178kts
29-Jul-20 12:32 33.650259 -118.189484 84 3014ft 178kts
29-Jul-20 12:33 33.655738 -118.128852 83 3010ft 186kts
29-Jul-20 12:34 33.661508 -118.066575 83 3010ft 187kts
29-Jul-20 12:35 33.690028 -118.019610 33 3010ft 187kts
29-Jul-20 12:36 33.733461 -117.984863 33 3010ft 188kts
29-Jul-20 12:37 33.776437 -117.950459 33 3001ft 171kts
29-Jul-20 12:38 33.811708 -117.922204 33 3010ft 147kts
29-Jul-20 12:39 33.845452 -117.895162 33 3009ft 145kts
29-Jul-20 12:40 33.878639 -117.867645 50 2999ft 145kts
29-Jul-20 12:41 33.879738 -117.821632 93 3009ft 136kts
29-Jul-20 12:42 33.875586 -117.776748 123 3002ft 136kts
29-Jul-20 12:43 33.839881 -117.768410 199 3004ft 135kts
29-Jul-20 12:44 33.806440 -117.784542 212 2760ft 131kts
29-Jul-20 12:45 33.775597 -117.805387 207 2102ft 126kts
29-Jul-20 12:46 33.744948 -117.824851 206 1444ft 123kts
29-Jul-20 12:47 33.715350 -117.843607 207 780ft 117kts
29-Jul-20 12:48 33.687853 -117.861114 207 220ft 110kts
29-Jul-20 12:49 33.674232 -117.870831 296 33ft 5kts
29-Jul-20 12:50 33.674663 -117.871738 309 37ft 12kts

Navigation Log

Ident Type
Flight plan parsing failed, navigation log unavailable